createdAt,value
2022-12-02T00:00:03.301Z,98518.54
2022-12-02T00:02:39.541Z,98518.05
2022-12-02T00:05:31.306Z,98522.27
2022-12-02T00:08:15.633Z,98522.29
2022-12-02T00:10:50.519Z,98520.50
2022-12-02T00:13:29.389Z,98523.00
2022-12-02T00:16:04.331Z,98520.95
2022-12-02T00:18:38.502Z,98519.80
2022-12-02T00:21:12.359Z,98516.89
2022-12-02T00:23:44.517Z,98517.21
2022-12-02T00:26:18.498Z,98519.63
2022-12-02T00:28:50.816Z,98520.04
2022-12-02T00:31:25.178Z,98519.86
2022-12-02T00:33:59.817Z,98521.49
2022-12-02T00:36:35.440Z,98511.98
2022-12-02T00:39:09.841Z,98515.48
2022-12-02T00:41:46.234Z,98513.85
2022-12-02T00:44:37.414Z,98508.21
2022-12-02T00:47:11.151Z,98513.95
2022-12-02T00:49:45.866Z,98513.22
2022-12-02T00:52:19.905Z,98511.33
2022-12-02T00:54:54.150Z,98514.55
2022-12-02T00:57:28.292Z,98511.08
2022-12-02T01:00:02.290Z,98510.40
2022-12-02T01:02:36.312Z,98508.58
2022-12-02T01:05:11.957Z,98504.45
2022-12-02T01:07:46.323Z,98502.77
2022-12-02T01:10:20.330Z,98501.38
2022-12-02T01:12:54.057Z,98496.33
2022-12-02T01:15:28.265Z,98495.65
2022-12-02T01:18:12.708Z,98496.00
2022-12-02T01:20:59.488Z,98490.54
2022-12-02T01:23:44.267Z,98488.57
2022-12-02T01:26:26.782Z,98485.55
2022-12-02T01:29:16.348Z,98490.96
2022-12-02T01:32:38.743Z,98490.80
2022-12-02T01:35:23.098Z,98489.08
2022-12-02T01:37:57.583Z,98487.60
2022-12-02T01:40:32.699Z,98483.30
2022-12-02T01:43:06.424Z,98480.91
2022-12-02T01:45:38.260Z,98482.70
2022-12-02T01:48:12.756Z,98478.98
2022-12-02T01:50:47.243Z,98480.08
2022-12-02T01:53:23.457Z,98476.30
2022-12-02T01:55:57.864Z,98476.63
2022-12-02T01:58:33.510Z,98478.29
2022-12-02T02:01:21.106Z,98479.21
2022-12-02T02:03:55.633Z,98477.73
2022-12-02T02:06:32.420Z,98477.49
2022-12-02T02:09:08.144Z,98474.52
2022-12-02T02:11:44.508Z,98470.52
2022-12-02T02:14:32.649Z,98466.50
2022-12-02T02:17:06.752Z,98465.38
2022-12-02T02:19:42.151Z,98464.41
2022-12-02T02:22:24.439Z,98463.95
2022-12-02T02:24:59.421Z,98466.18
2022-12-02T02:27:34.521Z,98464.59
2022-12-02T02:30:09.809Z,98466.61
2022-12-02T02:32:46.300Z,98466.48
2022-12-02T02:35:21.533Z,98465.91
2022-12-02T02:37:58.060Z,98465.45
2022-12-02T02:40:33.741Z,98468.91
2022-12-02T02:43:08.921Z,98464.86
2022-12-02T02:45:45.526Z,98463.59
2022-12-02T02:48:21.030Z,98461.38
2022-12-02T02:51:18.934Z,98458.29
2022-12-02T02:54:18.445Z,98460.09
2022-12-02T02:56:58.658Z,98460.61
2022-12-02T02:59:33.568Z,98458.57
2022-12-02T03:02:12.680Z,98462.45
2022-12-02T03:04:48.496Z,98463.09
2022-12-02T03:07:23.340Z,98460.29
2022-12-02T03:09:57.731Z,98458.83
2022-12-02T03:12:32.913Z,98455.98
2022-12-02T03:15:10.357Z,98453.42
2022-12-02T03:17:45.110Z,98445.07
2022-12-02T03:20:19.643Z,98441.29
2022-12-02T03:22:53.750Z,98442.15
2022-12-02T03:25:27.828Z,98439.91
2022-12-02T03:28:02.220Z,98441.61
2022-12-02T03:30:36.761Z,98443.33
2022-12-02T03:33:10.885Z,98440.69
2022-12-02T03:35:45.138Z,98430.75
2022-12-02T03:38:20.432Z,98434.23
2022-12-02T03:40:54.973Z,98432.16
2022-12-02T03:43:29.751Z,98433.93
2022-12-02T03:46:05.064Z,98431.63
2022-12-02T03:48:41.213Z,98430.27
2022-12-02T03:51:17.046Z,98431.20
2022-12-02T03:53:51.418Z,98432.30
2022-12-02T03:56:25.721Z,98434.23
2022-12-02T03:58:59.802Z,98438.52
2022-12-02T04:01:33.650Z,98439.45
2022-12-02T04:04:07.870Z,98438.83
2022-12-02T04:06:42.132Z,98442.14
2022-12-02T04:09:16.461Z,98444.79
2022-12-02T04:11:50.529Z,98445.77
2022-12-02T04:14:25.110Z,98447.59
2022-12-02T04:17:03.796Z,98450.59
2022-12-02T04:19:41.388Z,98447.42
2022-12-02T04:22:18.284Z,98446.96
2022-12-02T04:24:52.151Z,98444.20
2022-12-02T04:27:26.412Z,98442.24
2022-12-02T04:30:02.073Z,98440.08
2022-12-02T04:32:35.865Z,98442.48
2022-12-02T04:35:10.798Z,98440.21
2022-12-02T04:37:45.130Z,98441.28
2022-12-02T04:40:20.801Z,98441.58
2022-12-02T04:42:57.062Z,98442.05
2022-12-02T04:45:31.245Z,98444.30
2022-12-02T04:48:05.989Z,98441.03
2022-12-02T04:50:40.551Z,98440.91
2022-12-02T04:53:16.144Z,98441.38
2022-12-02T04:55:50.258Z,98445.59
2022-12-02T04:58:25.485Z,98442.84
2022-12-02T05:00:59.725Z,98443.10
2022-12-02T05:03:33.274Z,98441.89
2022-12-02T05:06:07.156Z,98440.13
2022-12-02T05:08:41.371Z,98438.95
2022-12-02T05:11:15.327Z,98441.48
2022-12-02T05:14:03.924Z,98440.13
2022-12-02T05:16:49.657Z,98439.20
2022-12-02T05:19:44.714Z,98439.58
2022-12-02T05:22:31.915Z,98438.43
2022-12-02T05:25:17.147Z,98434.33
2022-12-02T05:28:02.491Z,98434.04
2022-12-02T05:30:41.699Z,98431.39
2022-12-02T05:33:16.422Z,98431.51
2022-12-02T05:35:50.641Z,98427.93
2022-12-02T05:38:29.779Z,98432.86
2022-12-02T05:44:35.015Z,98431.21
2022-12-02T05:48:03.169Z,98433.33
2022-12-02T05:50:53.574Z,98432.20
2022-12-02T05:53:34.204Z,98436.67
2022-12-02T05:56:19.245Z,98436.39
2022-12-02T05:59:03.532Z,98438.35
2022-12-02T06:01:49.247Z,98436.64
2022-12-02T06:04:34.652Z,98443.17
2022-12-02T06:07:19.945Z,98443.77
2022-12-02T06:10:03.145Z,98446.14
2022-12-02T06:12:52.052Z,98445.53
2022-12-02T06:15:40.220Z,98446.84
2022-12-02T06:18:33.739Z,98448.34
2022-12-02T06:21:18.552Z,98449.70
2022-12-02T06:24:00.263Z,98450.29
2022-12-02T06:26:47.923Z,98449.45
2022-12-02T06:29:38.506Z,98448.80
2022-12-02T06:32:27.553Z,98450.46
2022-12-02T06:35:02.474Z,98448.58
2022-12-02T06:37:37.805Z,98452.83
2022-12-02T06:40:28.433Z,98453.91
2022-12-02T06:43:05.026Z,98453.79
2022-12-02T06:45:41.788Z,98459.71
2022-12-02T06:48:33.894Z,98460.94
2022-12-02T06:51:19.151Z,98463.81
2022-12-02T06:53:54.578Z,98467.27
2022-12-02T06:56:31.096Z,98470.66
2022-12-02T06:59:06.579Z,98471.27
2022-12-02T07:01:44.201Z,98474.04
2022-12-02T07:04:36.308Z,98472.61
2022-12-02T07:07:19.310Z,98466.95
2022-12-02T07:09:58.128Z,98470.77
2022-12-02T07:12:38.885Z,98469.26
2022-12-02T07:15:28.220Z,98471.91
2022-12-02T07:18:13.366Z,98468.16
2022-12-02T07:20:51.220Z,98467.26
2022-12-02T07:23:26.519Z,98466.36
2022-12-02T07:26:02.947Z,98474.18
2022-12-02T07:28:41.013Z,98472.91
2022-12-02T07:31:21.666Z,98473.54
2022-12-02T07:34:03.966Z,98473.59
2022-12-02T07:36:38.773Z,98472.48
2022-12-02T07:39:13.714Z,98475.09
2022-12-02T07:41:50.623Z,98480.92
2022-12-02T07:44:24.953Z,98483.52
2022-12-02T07:46:59.055Z,98479.42
2022-12-02T07:49:31.112Z,98480.42
2022-12-02T07:52:06.608Z,98480.80
2022-12-02T07:54:41.370Z,98476.05
2022-12-02T07:57:15.297Z,98477.60
2022-12-02T07:59:47.698Z,98477.31
2022-12-02T08:02:21.755Z,98477.27
2022-12-02T08:04:56.488Z,98476.95
2022-12-02T08:07:31.041Z,98475.02
2022-12-02T08:10:06.651Z,98469.73
2022-12-02T08:12:41.211Z,98469.46
2022-12-02T08:15:16.562Z,98472.83
2022-12-02T08:17:50.451Z,98469.09
2022-12-02T08:20:22.054Z,98472.21
2022-12-02T08:22:56.790Z,98474.02
2022-12-02T08:25:31.431Z,98474.21
2022-12-02T08:28:06.067Z,98472.89
2022-12-02T08:30:40.919Z,98476.59
2022-12-02T08:33:41.866Z,98472.46
2022-12-02T08:36:24.833Z,98471.61
2022-12-02T08:39:03.693Z,98474.48
2022-12-02T08:41:38.585Z,98475.51
2022-12-02T08:44:15.741Z,98480.14
2022-12-02T08:46:54.256Z,98479.27
2022-12-02T08:49:30.873Z,98482.93
2022-12-02T08:52:05.736Z,98480.45
2022-12-02T08:54:42.075Z,98483.36
2022-12-02T08:57:17.402Z,98486.13
2022-12-02T08:59:51.907Z,98477.96
2022-12-02T09:02:28.960Z,98478.33
2022-12-02T09:05:04.840Z,98478.67
2022-12-02T09:07:39.468Z,98478.09
2022-12-02T09:10:15.326Z,98477.77
2022-12-02T09:12:52.172Z,98475.45
2022-12-02T09:15:27.541Z,98475.21
2022-12-02T09:18:02.451Z,98478.16
2022-12-02T09:20:37.025Z,98477.27
2022-12-02T09:23:14.195Z,98476.63
2022-12-02T09:25:48.533Z,98475.03
2022-12-02T09:28:23.240Z,98473.79
2022-12-02T09:30:58.690Z,98472.91
2022-12-02T09:33:34.049Z,98474.05
2022-12-02T09:36:09.350Z,98470.71
2022-12-02T09:38:44.375Z,98473.61
2022-12-02T09:41:19.465Z,98474.42
2022-12-02T09:43:54.830Z,98473.96
2022-12-02T09:46:30.647Z,98471.86
2022-12-02T09:49:06.118Z,98470.45
2022-12-02T09:51:41.014Z,98468.36
2022-12-02T09:54:18.853Z,98467.83
2022-12-02T09:56:53.264Z,98467.42
2022-12-02T09:59:28.806Z,98467.45
2022-12-02T10:02:05.795Z,98464.73
2022-12-02T10:04:40.620Z,98468.64
2022-12-02T10:07:15.625Z,98467.48
2022-12-02T10:09:50.812Z,98465.45
2022-12-02T10:12:25.505Z,98462.88
2022-12-02T10:15:01.775Z,98461.95
2022-12-02T10:17:36.496Z,98458.96
2022-12-02T10:20:19.090Z,98457.24
2022-12-02T10:23:16.362Z,98458.59
2022-12-02T10:25:53.549Z,98458.33
2022-12-02T10:28:31.194Z,98458.59
2022-12-02T10:31:12.216Z,98454.98
2022-12-02T10:33:54.298Z,98450.63
2022-12-02T10:36:39.186Z,98450.52
2022-12-02T10:39:37.964Z,98450.49
2022-12-02T10:42:24.771Z,98450.07
2022-12-02T10:45:14.909Z,98445.17
2022-12-02T10:47:49.948Z,98443.89
2022-12-02T10:50:26.152Z,98440.58
2022-12-02T10:53:02.690Z,98441.52
2022-12-02T10:55:36.781Z,98444.45
2022-12-02T10:58:13.351Z,98436.52
2022-12-02T11:00:48.687Z,98437.40
2022-12-02T11:03:23.429Z,98435.15
2022-12-02T11:05:58.352Z,98433.34
2022-12-02T11:08:33.889Z,98432.64
2022-12-02T11:11:17.733Z,98431.30
2022-12-02T11:13:59.789Z,98430.39
2022-12-02T11:17:10.000Z,98426.96
2022-12-02T11:19:50.167Z,98429.17
2022-12-02T11:23:09.632Z,98428.84
2022-12-02T11:26:02.071Z,98428.16
2022-12-02T11:29:10.987Z,98424.66
2022-12-02T11:31:46.158Z,98424.27
2022-12-02T11:37:47.804Z,98421.09
2022-12-02T11:41:00.790Z,98420.25
2022-12-02T11:43:58.222Z,98416.40
2022-12-02T11:46:47.637Z,98419.24
2022-12-02T11:49:44.690Z,98417.95
2022-12-02T11:52:27.365Z,98413.61
2022-12-02T11:55:14.705Z,98417.55
2022-12-02T11:57:53.850Z,98417.63
2022-12-02T12:00:38.256Z,98418.83
2022-12-02T12:03:18.404Z,98417.87
2022-12-02T12:06:11.029Z,98421.42
2022-12-02T12:08:47.321Z,98420.20
2022-12-02T12:11:25.476Z,98417.58
2022-12-02T12:14:25.476Z,98419.15
2022-12-02T12:17:32.858Z,98418.57
2022-12-02T12:20:08.236Z,98424.52
2022-12-02T12:22:43.470Z,98424.98
2022-12-02T12:25:46.242Z,98427.02
2022-12-02T12:28:35.652Z,98425.44
2022-12-02T12:31:12.139Z,98425.14
2022-12-02T12:33:47.165Z,98424.45
2022-12-02T12:36:23.477Z,98422.66
2022-12-02T12:38:58.487Z,98417.28
2022-12-02T12:41:58.633Z,98413.70
2022-12-02T12:44:30.142Z,98417.25
2022-12-02T12:47:07.657Z,98415.77
2022-12-02T12:49:45.054Z,98417.02
2022-12-02T12:52:19.531Z,98419.40
2022-12-02T12:54:53.844Z,98418.71
2022-12-02T12:57:28.870Z,98420.59
2022-12-02T13:00:03.830Z,98421.48
2022-12-02T13:02:38.598Z,98419.41
2022-12-02T13:05:14.101Z,98420.88
2022-12-02T13:07:49.243Z,98419.81
2022-12-02T13:10:25.000Z,98421.89
2022-12-02T13:13:00.078Z,98425.27
2022-12-02T13:15:36.411Z,98421.56
2022-12-02T13:18:28.669Z,98423.10
2022-12-02T13:21:03.446Z,98426.11
2022-12-02T13:23:40.963Z,98424.99
2022-12-02T13:26:16.246Z,98421.61
2022-12-02T13:28:53.586Z,98422.15
2022-12-02T13:31:34.635Z,98421.14
2022-12-02T13:34:10.853Z,98426.92
2022-12-02T13:36:45.044Z,98421.59
2022-12-02T13:39:19.394Z,98425.51
2022-12-02T13:41:53.000Z,98427.59
2022-12-02T13:44:27.644Z,98419.70
2022-12-02T13:47:01.277Z,98421.27
2022-12-02T13:49:35.823Z,98424.74
2022-12-02T13:52:14.083Z,98422.02
2022-12-02T13:54:49.536Z,98425.48
2022-12-02T13:57:35.416Z,98423.82
2022-12-02T14:00:13.121Z,98424.66
2022-12-02T14:02:47.672Z,98424.27
2022-12-02T14:05:25.346Z,98420.42
2022-12-02T14:07:59.572Z,98425.97
2022-12-02T14:10:38.480Z,98422.91
2022-12-02T14:13:18.278Z,98422.84
2022-12-02T14:15:56.081Z,98425.23
2022-12-02T14:18:30.584Z,98424.72
2022-12-02T14:21:05.824Z,98430.54
2022-12-02T14:23:40.196Z,98427.80
2022-12-02T14:26:15.441Z,98428.20
2022-12-02T14:28:56.441Z,98428.48
2022-12-02T14:31:35.770Z,98428.23
2022-12-02T14:34:14.428Z,98428.43
2022-12-02T14:36:48.918Z,98429.89
2022-12-02T14:39:24.396Z,98430.61
2022-12-02T14:42:00.828Z,98435.98
2022-12-02T14:44:36.693Z,98434.55
2022-12-02T14:47:11.167Z,98434.09
2022-12-02T14:49:46.615Z,98428.27
2022-12-02T14:52:21.571Z,98430.02
2022-12-02T14:54:56.214Z,98432.13
2022-12-02T14:57:34.185Z,98435.85
2022-12-02T15:00:13.820Z,98440.52
2022-12-02T15:02:49.827Z,98438.96
2022-12-02T15:05:25.017Z,98438.36
2022-12-02T15:08:02.555Z,98439.34
2022-12-02T15:10:41.397Z,98440.13
2022-12-02T15:13:16.006Z,98438.93
2022-12-02T15:15:56.920Z,98432.96
2022-12-02T15:18:37.239Z,98432.59
2022-12-02T15:21:13.754Z,98428.06
2022-12-02T15:23:48.073Z,98428.91
2022-12-02T15:26:23.298Z,98428.17
2022-12-02T15:28:59.231Z,98431.02
2022-12-02T15:31:33.649Z,98430.73
2022-12-02T15:34:27.992Z,98433.38
2022-12-02T15:37:02.302Z,98431.77
2022-12-02T15:39:36.989Z,98433.55
2022-12-02T15:42:12.026Z,98433.30
2022-12-02T15:44:46.220Z,98434.39
2022-12-02T15:47:20.814Z,98437.67
2022-12-02T15:49:56.209Z,98435.30
2022-12-02T15:52:36.821Z,98434.16
2022-12-02T15:55:15.673Z,98436.46
2022-12-02T15:57:53.443Z,98439.20
2022-12-02T16:00:28.849Z,98438.26
2022-12-02T16:03:04.130Z,98440.06
2022-12-02T16:05:40.640Z,98445.06
2022-12-02T16:08:15.213Z,98442.60
2022-12-02T16:10:51.925Z,98442.72
2022-12-02T16:13:25.984Z,98441.63
2022-12-02T16:16:01.129Z,98442.99
2022-12-02T16:18:38.204Z,98438.09
2022-12-02T16:21:12.619Z,98438.06
2022-12-02T16:23:47.535Z,98443.19
2022-12-02T16:26:21.474Z,98441.89
2022-12-02T16:28:58.060Z,98441.98
2022-12-02T16:31:32.736Z,98443.79
2022-12-02T16:34:06.851Z,98441.12
2022-12-02T16:36:41.217Z,98444.04
2022-12-02T16:39:14.969Z,98444.13
2022-12-02T16:41:49.177Z,98446.89
2022-12-02T16:44:23.628Z,98444.83
2022-12-02T16:47:06.034Z,98448.51
2022-12-02T16:49:39.998Z,98449.41
2022-12-02T16:52:14.623Z,98450.16
2022-12-02T16:54:48.728Z,98445.56
2022-12-02T16:57:23.341Z,98444.05
2022-12-02T16:59:57.533Z,98442.80
2022-12-02T17:02:32.422Z,98441.21
2022-12-02T17:05:07.010Z,98440.92
2022-12-02T17:07:41.543Z,98439.26
2022-12-02T17:10:16.983Z,98443.50
2022-12-02T17:12:52.404Z,98443.39
2022-12-02T17:15:28.081Z,98442.66
2022-12-02T17:18:02.791Z,98445.83
2022-12-02T17:20:36.741Z,98439.86
2022-12-02T17:23:10.840Z,98440.98
2022-12-02T17:25:46.381Z,98440.98
2022-12-02T17:28:22.022Z,98443.60
2022-12-02T17:31:00.509Z,98447.97
2022-12-02T17:33:34.553Z,98451.30
2022-12-02T17:36:09.865Z,98456.73
2022-12-02T17:38:57.328Z,98458.80
2022-12-02T17:41:32.916Z,98461.57
2022-12-02T17:44:10.234Z,98464.46
2022-12-02T17:46:53.192Z,98466.77
2022-12-02T17:49:42.702Z,98465.39
2022-12-02T17:52:34.317Z,98470.58
2022-12-02T17:55:17.888Z,98468.86
2022-12-02T17:57:54.470Z,98469.48
2022-12-02T18:00:31.467Z,98467.88
2022-12-02T18:03:07.574Z,98468.75
2022-12-02T18:05:43.558Z,98466.48
2022-12-02T18:08:18.644Z,98466.36
2022-12-02T18:10:52.890Z,98464.22
2022-12-02T18:13:29.329Z,98467.73
2022-12-02T18:16:07.643Z,98466.29
2022-12-02T18:18:42.016Z,98462.27
2022-12-02T18:21:16.493Z,98463.46
2022-12-02T18:23:50.960Z,98465.54
2022-12-02T18:26:26.112Z,98464.78
2022-12-02T18:29:00.299Z,98462.48
2022-12-02T18:31:34.459Z,98462.69
2022-12-02T18:34:08.793Z,98463.25
2022-12-02T18:36:43.357Z,98464.80
2022-12-02T18:39:17.979Z,98466.11
2022-12-02T18:41:57.981Z,98464.55
2022-12-02T18:44:35.621Z,98460.84
2022-12-02T18:47:13.377Z,98461.91
2022-12-02T18:49:51.746Z,98463.60
2022-12-02T18:52:29.476Z,98462.42
2022-12-02T18:55:09.552Z,98463.88
2022-12-02T18:57:49.875Z,98463.48
2022-12-02T19:00:29.493Z,98463.02
2022-12-02T19:03:10.471Z,98462.20
2022-12-02T19:05:49.550Z,98455.61
2022-12-02T19:08:25.956Z,98458.91
2022-12-02T19:11:02.707Z,98459.56
2022-12-02T19:13:41.827Z,98458.38
2022-12-02T19:16:20.110Z,98459.17
2022-12-02T19:18:59.299Z,98459.91
2022-12-02T19:21:37.552Z,98458.77
2022-12-02T19:24:16.449Z,98457.27
2022-12-02T19:26:54.517Z,98457.10
2022-12-02T19:29:42.632Z,98458.83
2022-12-02T19:32:25.434Z,98456.46
2022-12-02T19:35:11.838Z,98453.83
2022-12-02T19:37:51.696Z,98458.33
2022-12-02T19:40:32.924Z,98457.83
2022-12-02T19:43:10.343Z,98456.98
2022-12-02T19:45:49.430Z,98457.79
2022-12-02T19:48:28.215Z,98461.50
2022-12-02T19:51:02.736Z,98458.93
2022-12-02T19:53:42.483Z,98461.27
2022-12-02T19:56:17.878Z,98460.05
2022-12-02T19:59:07.187Z,98458.77
2022-12-02T20:02:01.106Z,98458.57
2022-12-02T20:04:47.200Z,98456.88
2022-12-02T20:07:35.003Z,98457.52
2022-12-02T20:10:14.736Z,98457.30
2022-12-02T20:12:52.478Z,98455.08
2022-12-02T20:15:33.611Z,98457.60
2022-12-02T20:18:10.067Z,98455.29
2022-12-02T20:20:46.154Z,98451.94
2022-12-02T20:23:20.448Z,98454.09
2022-12-02T20:26:01.863Z,98453.66
2022-12-02T20:28:43.798Z,98455.63
2022-12-02T20:31:28.307Z,98447.12
2022-12-02T20:34:02.789Z,98446.10
2022-12-02T20:36:37.535Z,98444.71
2022-12-02T20:39:11.578Z,98441.34
2022-12-02T20:41:49.090Z,98442.91
2022-12-02T20:44:28.979Z,98445.07
2022-12-02T20:47:05.710Z,98440.30
2022-12-02T20:49:39.801Z,98443.59
2022-12-02T20:52:14.268Z,98439.09
2022-12-02T20:54:49.155Z,98441.69
2022-12-02T20:57:25.520Z,98441.39
2022-12-02T21:00:00.618Z,98441.73
2022-12-02T21:02:34.927Z,98446.61
2022-12-02T21:05:10.620Z,98447.70
2022-12-02T21:07:45.361Z,98447.49
2022-12-02T21:10:21.800Z,98447.90
2022-12-02T21:13:00.331Z,98444.64
2022-12-02T21:15:40.243Z,98447.05
2022-12-02T21:18:15.977Z,98448.81
2022-12-02T21:20:50.854Z,98444.29
2022-12-02T21:23:29.154Z,98440.45
2022-12-02T21:26:05.419Z,98439.20
2022-12-02T21:28:39.857Z,98439.16
2022-12-02T21:31:17.140Z,98434.60
2022-12-02T21:33:52.110Z,98435.00
2022-12-02T21:36:28.470Z,98440.02
2022-12-02T21:39:02.956Z,98442.35
2022-12-02T21:41:37.228Z,98440.81
2022-12-02T21:44:11.663Z,98435.91
2022-12-02T21:46:45.970Z,98437.98
2022-12-02T21:49:20.351Z,98438.30
2022-12-02T21:51:55.836Z,98433.42
2022-12-02T21:54:29.954Z,98433.13
2022-12-02T21:57:04.870Z,98435.84
2022-12-02T21:59:39.051Z,98438.58
2022-12-02T22:02:21.669Z,98436.45
2022-12-02T22:04:56.230Z,98436.83
2022-12-02T22:07:43.039Z,98438.91
2022-12-02T22:10:21.634Z,98435.64
2022-12-02T22:12:56.749Z,98432.08
2022-12-02T22:15:32.717Z,98429.84
2022-12-02T22:18:08.528Z,98433.75
2022-12-02T22:20:52.383Z,98434.66
2022-12-02T22:23:25.517Z,98435.46
2022-12-02T22:25:59.463Z,98434.34
2022-12-02T22:28:33.870Z,98431.11
2022-12-02T22:31:08.312Z,98429.92
2022-12-02T22:33:42.697Z,98426.20
2022-12-02T22:36:17.985Z,98425.80
2022-12-02T22:38:53.007Z,98424.52
2022-12-02T22:41:27.234Z,98425.03
2022-12-02T22:44:01.385Z,98427.55
2022-12-02T22:46:36.255Z,98425.86
2022-12-02T22:49:10.446Z,98424.98
2022-12-02T22:51:44.216Z,98428.84
2022-12-02T22:54:21.166Z,98427.16
2022-12-02T22:56:55.605Z,98430.23
2022-12-02T22:59:31.330Z,98429.23
2022-12-02T23:02:05.236Z,98425.51
2022-12-02T23:04:40.395Z,98423.34
2022-12-02T23:07:14.799Z,98423.27
2022-12-02T23:09:49.990Z,98424.95
2022-12-02T23:12:26.499Z,98428.27
2022-12-02T23:15:34.598Z,98424.91
2022-12-02T23:17:57.487Z,98428.09
2022-12-02T23:20:32.260Z,98429.75
2022-12-02T23:23:06.075Z,98426.71
2022-12-02T23:25:40.207Z,98427.23
2022-12-02T23:28:14.162Z,98428.79
2022-12-02T23:30:48.579Z,98429.14
2022-12-02T23:33:24.107Z,98434.30
2022-12-02T23:35:58.276Z,98431.79
2022-12-02T23:38:32.292Z,98433.64
2022-12-02T23:41:06.464Z,98432.54
2022-12-02T23:43:40.279Z,98432.29
2022-12-02T23:46:14.301Z,98430.38
2022-12-02T23:48:48.436Z,98431.39
2022-12-02T23:51:27.058Z,98430.19
2022-12-02T23:54:01.684Z,98428.50
2022-12-02T23:56:35.726Z,98426.96
2022-12-02T23:59:09.964Z,98424.61
